Tampa Trader — 9V2652 — position and weather

sailwx.info

Track history (hours):
 
Tides and Currents Weather Stations Pressure Air Temp Water Temp Dewpoint Dewpoint Depression Visibility Wind Speed Wind Dir Waves Ship Positions

Tampa Trader

Last reported at 2018-Apr-17 18:16 UTC. Time now 2018-Jun-23 02:42 UTC.
Position N 18°26' W 066°06'.
Warning: this ship's position is months out of date.

Length 147 m; draft 7.8 m.

Type: Cargo ship. MMSI: 566607000.

Date/timePositionNaut miles runAvg speedWind from/ knotsBaromVisibWave heightAir tempDewpointWater temp
2018-Apr-17 18:16N 18°26' W 066°06'0 0.0
2018-Apr-17 17:58N 18°26' W 066°06'  
2018-Apr-10 07:43N 10°28' W 075°38'314.2
2018-Apr-10 07:30N 10°25' W 075°38'713.2
2018-Apr-10 07:00N 10°19' W 075°36'5 8.8
2018-Apr-10 06:28N 10°21' W 075°32'2 4.4
2018-Apr-10 06:00N 10°23' W 075°31'0 0.0
2018-Apr-10 05:30N 10°23' W 075°31'0 0.0
2018-Apr-10 05:00N 10°23' W 075°31'0 0.0
2018-Apr-10 04:29N 10°23' W 075°31'0 0.0
2018-Apr-10 03:49N 10°23' W 075°31'0 0.0
2018-Apr-10 03:27N 10°23' W 075°31'0 0.0
2018-Apr-10 02:59N 10°23' W 075°31'0 0.0
2018-Apr-10 02:29N 10°23' W 075°31'0 0.0
2018-Apr-10 01:59N 10°23' W 075°31'0 0.0
2018-Apr-10 01:28N 10°23' W 075°31'0 0.0
2018-Apr-10 01:00N 10°23' W 075°31'0 0.0
2018-Apr-10 00:30N 10°23' W 075°31'0 0.0
2018-Apr-10 00:00N 10°23' W 075°31'0 0.0
2018-Apr-09 23:29N 10°23' W 075°31'0 0.0
2018-Apr-09 23:00N 10°23' W 075°31'0 0.0
2018-Apr-09 22:30N 10°23' W 075°31'0 0.0
2018-Apr-09 22:00N 10°23' W 075°31'0 0.0
2018-Apr-09 21:29N 10°23' W 075°31'0 0.0
2018-Apr-09 20:59N 10°23' W 075°31'0 0.0
2018-Apr-09 20:30N 10°23' W 075°31'0 0.0
2018-Apr-09 19:58N 10°23' W 075°31'0 0.0
2018-Apr-09 19:30N 10°23' W 075°31'0 0.0
2018-Apr-09 19:00N 10°23' W 075°31'0 0.0
2018-Apr-09 18:30N 10°23' W 075°31'2 4.9
2018-Apr-09 18:00N 10°21' W 075°32'4 8.5
2018-Apr-09 17:30N 10°20' W 075°36'0 0.9
2018-Apr-09 17:00N 10°20' W 075°37'2 4.7
2018-Apr-09 16:30N 10°22' W 075°37'5 9.8
2018-Apr-09 16:00N 10°27' W 075°37'610.9
2018-Apr-09 15:29N 10°32' W 075°35'511.0
2018-Apr-09 15:00N 10°37' W 075°33'610.7
2018-Apr-09 14:28N 10°43' W 075°31'4612.3
2018-Apr-09 10:41N 11°02' W 074°48'1 0.2
2018-Apr-09 03:39N 11°01' W 074°47'  
Track history (hours):
 
Tides and Currents Weather Stations Pressure Air Temp Water Temp Dewpoint Dewpoint Depression Visibility Wind Speed Wind Dir Waves Ship Positions

Tampa Trader

Last reported at 2018-Apr-17 18:16 UTC. Time now 2018-Jun-23 02:42 UTC.
Position N 18°26' W 066°06'.
Warning: this ship's position is months out of date.

Length 147 m; draft 7.8 m.

Type: Cargo ship. MMSI: 566607000.

Date/timePositionNaut miles runAvg speedWind from/ knotsBaromVisibWave heightAir tempDewpointWater temp
2018-Apr-17 18:16N 18°26' W 066°06'0 0.0
2018-Apr-17 17:58N 18°26' W 066°06'  
2018-Apr-10 07:43N 10°28' W 075°38'314.2
2018-Apr-10 07:30N 10°25' W 075°38'713.2
2018-Apr-10 07:00N 10°19' W 075°36'5 8.8
2018-Apr-10 06:28N 10°21' W 075°32'2 4.4
2018-Apr-10 06:00N 10°23' W 075°31'0 0.0
2018-Apr-10 05:30N 10°23' W 075°31'0 0.0
2018-Apr-10 05:00N 10°23' W 075°31'0 0.0
2018-Apr-10 04:29N 10°23' W 075°31'0 0.0
2018-Apr-10 03:49N 10°23' W 075°31'0 0.0
2018-Apr-10 03:27N 10°23' W 075°31'0 0.0
2018-Apr-10 02:59N 10°23' W 075°31'0 0.0
2018-Apr-10 02:29N 10°23' W 075°31'0 0.0
2018-Apr-10 01:59N 10°23' W 075°31'0 0.0
2018-Apr-10 01:28N 10°23' W 075°31'0 0.0
2018-Apr-10 01:00N 10°23' W 075°31'0 0.0
2018-Apr-10 00:30N 10°23' W 075°31'0 0.0
2018-Apr-10 00:00N 10°23' W 075°31'0 0.0
2018-Apr-09 23:29N 10°23' W 075°31'0 0.0
2018-Apr-09 23:00N 10°23' W 075°31'0 0.0
2018-Apr-09 22:30N 10°23' W 075°31'0 0.0
2018-Apr-09 22:00N 10°23' W 075°31'0 0.0
2018-Apr-09 21:29N 10°23' W 075°31'0 0.0
2018-Apr-09 20:59N 10°23' W 075°31'0 0.0
2018-Apr-09 20:30N 10°23' W 075°31'0 0.0
2018-Apr-09 19:58N 10°23' W 075°31'0 0.0
2018-Apr-09 19:30N 10°23' W 075°31'0 0.0
2018-Apr-09 19:00N 10°23' W 075°31'0 0.0
2018-Apr-09 18:30N 10°23' W 075°31'2 4.9
2018-Apr-09 18:00N 10°21' W 075°32'4 8.5
2018-Apr-09 17:30N 10°20' W 075°36'0 0.9
2018-Apr-09 17:00N 10°20' W 075°37'2 4.7
2018-Apr-09 16:30N 10°22' W 075°37'5 9.8
2018-Apr-09 16:00N 10°27' W 075°37'610.9
2018-Apr-09 15:29N 10°32' W 075°35'511.0
2018-Apr-09 15:00N 10°37' W 075°33'610.7
2018-Apr-09 14:28N 10°43' W 075°31'4612.3
2018-Apr-09 10:41N 11°02' W 074°48'1 0.2
2018-Apr-09 03:39N 11°01' W 074°47'  

Dump ship's entire track history